Kota Waris — S6RJ — position and weather

sailwx.info

Track history (hours):
 
Tides and Currents Weather Stations Pressure Air Temp Water Temp Dewpoint Dewpoint Depression Visibility Wind Speed Wind Dir Waves Ship Positions

Kota Waris

Last reported at 2017-Jun-28 02:58 UTC. Time now 2017-Jun-28 03:27 UTC.
Position N 01°16' E 103°50'.

Length 185 m; draft 7.8 m.

Type: Cargo ship. MMSI: 564482000.

Date/timePositionNaut miles runAvg speedWind from/ knotsBaromVisibWave heightAir tempDewpointWater temp
2017-Jun-28 02:58N 01°16' E 103°50'0 0.0
2017-Jun-28 02:22N 01°16' E 103°50'0 0.0
2017-Jun-28 01:55N 01°16' E 103°50'0 0.0
2017-Jun-28 01:28N 01°16' E 103°50'0 0.0
2017-Jun-28 00:55N 01°16' E 103°50'0 0.0
2017-Jun-28 00:22N 01°16' E 103°50'0 0.0
2017-Jun-27 23:58N 01°16' E 103°50'0 0.0
2017-Jun-27 23:28N 01°16' E 103°50'0 0.0
2017-Jun-27 22:58N 01°16' E 103°50'0 0.0
2017-Jun-27 22:28N 01°16' E 103°50'0 0.0
2017-Jun-27 21:52N 01°16' E 103°50'0 0.0
2017-Jun-27 21:28N 01°16' E 103°50'0 0.0
2017-Jun-27 20:58N 01°16' E 103°50'0 0.0
2017-Jun-27 20:25N 01°16' E 103°50'0 0.0
2017-Jun-27 19:58N 01°16' E 103°50'0 0.0
2017-Jun-27 19:28N 01°16' E 103°50'0 0.0
2017-Jun-27 18:58N 01°16' E 103°50'0 0.0
2017-Jun-27 18:28N 01°16' E 103°50'0 0.0
2017-Jun-27 17:55N 01°16' E 103°50'0 0.0
2017-Jun-27 17:28N 01°16' E 103°50'0 0.0
2017-Jun-27 16:55N 01°16' E 103°50'0 0.0
2017-Jun-27 16:28N 01°16' E 103°50'0 0.0
2017-Jun-27 15:58N 01°16' E 103°50'0 0.0
2017-Jun-27 15:25N 01°16' E 103°50'0 0.0
2017-Jun-27 14:58N 01°16' E 103°50'0 0.0
2017-Jun-27 14:19N 01°16' E 103°50'0 0.0
2017-Jun-27 13:28N 01°16' E 103°50'0 0.0
2017-Jun-27 12:58N 01°16' E 103°50'0 0.0
2017-Jun-27 12:28N 01°16' E 103°50'0 0.0
2017-Jun-27 11:58N 01°16' E 103°50'0 0.0
2017-Jun-27 11:29N 01°16' E 103°50'0 0.0
2017-Jun-27 10:55N 01°16' E 103°50'0 0.0
2017-Jun-27 10:28N 01°16' E 103°50'0 0.0
2017-Jun-27 09:58N 01°16' E 103°50'0 0.0
2017-Jun-27 09:28N 01°16' E 103°50'0 0.0
2017-Jun-27 09:00N 01°16' E 103°50'1 2.8
2017-Jun-27 08:30N 01°16' E 103°51'0 0.6
2017-Jun-27 08:00N 01°15' E 103°51'2 5.0
2017-Jun-27 07:30N 01°14' E 103°53'3 6.5
2017-Jun-27 07:00N 01°15' E 103°57'4 8.1
2017-Jun-27 06:30N 01°16' E 104°01'5 8.1
2017-Jun-27 05:54N 01°16' E 104°05'22 9.1
2017-Jun-27 03:33N 01°23' E 104°26'  
2017-Jun-21 06:34N 01°15' E 104°01'416.2
2017-Jun-21 06:18N 01°14' E 103°57'411.6
2017-Jun-21 05:56N 01°14' E 103°53'3 5.8
2017-Jun-21 05:27N 01°16' E 103°51'0 0.1
2017-Jun-21 04:33N 01°16' E 103°51'0 0.0
2017-Jun-21 04:30N 01°16' E 103°51'0 0.1
2017-Jun-21 03:54N 01°16' E 103°50'0 0.1
2017-Jun-21 03:27N 01°16' E 103°51'0 0.0
2017-Jun-21 02:57N 01°16' E 103°51'0 0.0
2017-Jun-21 02:18N 01°16' E 103°51'0 0.0
2017-Jun-21 00:54N 01°16' E 103°51'0 0.0
2017-Jun-21 00:18N 01°16' E 103°51'0 0.0
2017-Jun-21 00:00N 01°16' E 103°51'0 0.0
2017-Jun-20 23:30N 01°16' E 103°51'0 0.0
2017-Jun-20 23:00N 01°16' E 103°51'0 0.0
2017-Jun-20 22:27N 01°16' E 103°51'0 0.0
2017-Jun-20 21:57N 01°16' E 103°51'0 0.0
2017-Jun-20 21:27N 01°16' E 103°51'0 0.0
2017-Jun-20 20:57N 01°16' E 103°51'0 0.1
2017-Jun-20 20:27N 01°16' E 103°50'0 0.1
2017-Jun-20 20:00N 01°16' E 103°51'0 0.0
2017-Jun-20 19:30N 01°16' E 103°51'0 0.0
2017-Jun-20 19:00N 01°16' E 103°51'0 0.0
2017-Jun-20 18:27N 01°16' E 103°51'0 0.0
2017-Jun-20 17:57N 01°16' E 103°51'0 0.0
2017-Jun-20 17:24N 01°16' E 103°51'0 0.0
2017-Jun-20 17:00N 01°16' E 103°51'0 0.0
2017-Jun-20 16:30N 01°16' E 103°51'0 0.0
2017-Jun-20 16:00N 01°16' E 103°51'0 0.0
2017-Jun-20 15:27N 01°16' E 103°51'0 0.0
2017-Jun-20 14:57N 01°16' E 103°51'0 0.0
2017-Jun-20 13:54N 01°16' E 103°51'0 0.0
2017-Jun-20 13:30N 01°16' E 103°51'0 0.2
2017-Jun-20 13:00N 01°16' E 103°50'0 0.0
2017-Jun-20 12:31N 01°16' E 103°50'0 0.0
2017-Jun-20 12:00N 01°16' E 103°50'0 0.1
2017-Jun-20 11:30N 01°16' E 103°50'0 0.1
2017-Jun-20 11:00N 01°16' E 103°50'0 0.0
2017-Jun-20 10:30N 01°16' E 103°50'0 0.0
2017-Jun-20 10:00N 01°16' E 103°50'0 0.1
2017-Jun-20 09:30N 01°16' E 103°50'0 0.1
2017-Jun-20 09:00N 01°16' E 103°50'0 0.0
2017-Jun-20 08:30N 01°16' E 103°50'0 0.0
2017-Jun-20 08:00N 01°16' E 103°50'0 0.1
2017-Jun-20 07:30N 01°16' E 103°50'0 0.1
2017-Jun-20 07:00N 01°16' E 103°50'0 0.0
2017-Jun-20 06:30N 01°16' E 103°50'0 0.0
2017-Jun-20 06:00N 01°16' E 103°50'0 0.6
2017-Jun-20 05:30N 01°16' E 103°51'1 1.9
2017-Jun-20 05:00N 01°15' E 103°52'1 1.4
2017-Jun-20 04:31N 01°15' E 103°52'1 2.2
2017-Jun-20 04:00N 01°14' E 103°53'1 2.2
2017-Jun-20 03:31N 01°14' E 103°54'3 5.4
2017-Jun-20 03:00N 01°15' E 103°56'4 7.9
2017-Jun-20 02:30N 01°15' E 104°00'  
Track history (hours):
 
Tides and Currents Weather Stations Pressure Air Temp Water Temp Dewpoint Dewpoint Depression Visibility Wind Speed Wind Dir Waves Ship Positions

Kota Waris

Last reported at 2017-Jun-28 02:58 UTC. Time now 2017-Jun-28 03:27 UTC.
Position N 01°16' E 103°50'.

Length 185 m; draft 7.8 m.

Type: Cargo ship. MMSI: 564482000.

Date/timePositionNaut miles runAvg speedWind from/ knotsBaromVisibWave heightAir tempDewpointWater temp
2017-Jun-28 02:58N 01°16' E 103°50'0 0.0
2017-Jun-28 02:22N 01°16' E 103°50'0 0.0
2017-Jun-28 01:55N 01°16' E 103°50'0 0.0
2017-Jun-28 01:28N 01°16' E 103°50'0 0.0
2017-Jun-28 00:55N 01°16' E 103°50'0 0.0
2017-Jun-28 00:22N 01°16' E 103°50'0 0.0
2017-Jun-27 23:58N 01°16' E 103°50'0 0.0
2017-Jun-27 23:28N 01°16' E 103°50'0 0.0
2017-Jun-27 22:58N 01°16' E 103°50'0 0.0
2017-Jun-27 22:28N 01°16' E 103°50'0 0.0
2017-Jun-27 21:52N 01°16' E 103°50'0 0.0
2017-Jun-27 21:28N 01°16' E 103°50'0 0.0
2017-Jun-27 20:58N 01°16' E 103°50'0 0.0
2017-Jun-27 20:25N 01°16' E 103°50'0 0.0
2017-Jun-27 19:58N 01°16' E 103°50'0 0.0
2017-Jun-27 19:28N 01°16' E 103°50'0 0.0
2017-Jun-27 18:58N 01°16' E 103°50'0 0.0
2017-Jun-27 18:28N 01°16' E 103°50'0 0.0
2017-Jun-27 17:55N 01°16' E 103°50'0 0.0
2017-Jun-27 17:28N 01°16' E 103°50'0 0.0
2017-Jun-27 16:55N 01°16' E 103°50'0 0.0
2017-Jun-27 16:28N 01°16' E 103°50'0 0.0
2017-Jun-27 15:58N 01°16' E 103°50'0 0.0
2017-Jun-27 15:25N 01°16' E 103°50'0 0.0
2017-Jun-27 14:58N 01°16' E 103°50'0 0.0
2017-Jun-27 14:19N 01°16' E 103°50'0 0.0
2017-Jun-27 13:28N 01°16' E 103°50'0 0.0
2017-Jun-27 12:58N 01°16' E 103°50'0 0.0
2017-Jun-27 12:28N 01°16' E 103°50'0 0.0
2017-Jun-27 11:58N 01°16' E 103°50'0 0.0
2017-Jun-27 11:29N 01°16' E 103°50'0 0.0
2017-Jun-27 10:55N 01°16' E 103°50'0 0.0
2017-Jun-27 10:28N 01°16' E 103°50'0 0.0
2017-Jun-27 09:58N 01°16' E 103°50'0 0.0
2017-Jun-27 09:28N 01°16' E 103°50'0 0.0
2017-Jun-27 09:00N 01°16' E 103°50'1 2.8
2017-Jun-27 08:30N 01°16' E 103°51'0 0.6
2017-Jun-27 08:00N 01°15' E 103°51'2 5.0
2017-Jun-27 07:30N 01°14' E 103°53'3 6.5
2017-Jun-27 07:00N 01°15' E 103°57'4 8.1
2017-Jun-27 06:30N 01°16' E 104°01'5 8.1
2017-Jun-27 05:54N 01°16' E 104°05'22 9.1
2017-Jun-27 03:33N 01°23' E 104°26'  
2017-Jun-21 06:34N 01°15' E 104°01'416.2
2017-Jun-21 06:18N 01°14' E 103°57'411.6
2017-Jun-21 05:56N 01°14' E 103°53'3 5.8
2017-Jun-21 05:27N 01°16' E 103°51'0 0.1
2017-Jun-21 04:33N 01°16' E 103°51'0 0.0
2017-Jun-21 04:30N 01°16' E 103°51'0 0.1
2017-Jun-21 03:54N 01°16' E 103°50'0 0.1
2017-Jun-21 03:27N 01°16' E 103°51'0 0.0
2017-Jun-21 02:57N 01°16' E 103°51'0 0.0
2017-Jun-21 02:18N 01°16' E 103°51'0 0.0
2017-Jun-21 00:54N 01°16' E 103°51'0 0.0
2017-Jun-21 00:18N 01°16' E 103°51'0 0.0
2017-Jun-21 00:00N 01°16' E 103°51'0 0.0
2017-Jun-20 23:30N 01°16' E 103°51'0 0.0
2017-Jun-20 23:00N 01°16' E 103°51'0 0.0
2017-Jun-20 22:27N 01°16' E 103°51'0 0.0
2017-Jun-20 21:57N 01°16' E 103°51'0 0.0
2017-Jun-20 21:27N 01°16' E 103°51'0 0.0
2017-Jun-20 20:57N 01°16' E 103°51'0 0.1
2017-Jun-20 20:27N 01°16' E 103°50'0 0.1
2017-Jun-20 20:00N 01°16' E 103°51'0 0.0
2017-Jun-20 19:30N 01°16' E 103°51'0 0.0
2017-Jun-20 19:00N 01°16' E 103°51'0 0.0
2017-Jun-20 18:27N 01°16' E 103°51'0 0.0
2017-Jun-20 17:57N 01°16' E 103°51'0 0.0
2017-Jun-20 17:24N 01°16' E 103°51'0 0.0
2017-Jun-20 17:00N 01°16' E 103°51'0 0.0
2017-Jun-20 16:30N 01°16' E 103°51'0 0.0
2017-Jun-20 16:00N 01°16' E 103°51'0 0.0
2017-Jun-20 15:27N 01°16' E 103°51'0 0.0
2017-Jun-20 14:57N 01°16' E 103°51'0 0.0
2017-Jun-20 13:54N 01°16' E 103°51'0 0.0
2017-Jun-20 13:30N 01°16' E 103°51'0 0.2
2017-Jun-20 13:00N 01°16' E 103°50'0 0.0
2017-Jun-20 12:31N 01°16' E 103°50'0 0.0
2017-Jun-20 12:00N 01°16' E 103°50'0 0.1
2017-Jun-20 11:30N 01°16' E 103°50'0 0.1
2017-Jun-20 11:00N 01°16' E 103°50'0 0.0
2017-Jun-20 10:30N 01°16' E 103°50'0 0.0
2017-Jun-20 10:00N 01°16' E 103°50'0 0.1
2017-Jun-20 09:30N 01°16' E 103°50'0 0.1
2017-Jun-20 09:00N 01°16' E 103°50'0 0.0
2017-Jun-20 08:30N 01°16' E 103°50'0 0.0
2017-Jun-20 08:00N 01°16' E 103°50'0 0.1
2017-Jun-20 07:30N 01°16' E 103°50'0 0.1
2017-Jun-20 07:00N 01°16' E 103°50'0 0.0
2017-Jun-20 06:30N 01°16' E 103°50'0 0.0
2017-Jun-20 06:00N 01°16' E 103°50'0 0.6
2017-Jun-20 05:30N 01°16' E 103°51'1 1.9
2017-Jun-20 05:00N 01°15' E 103°52'1 1.4
2017-Jun-20 04:31N 01°15' E 103°52'1 2.2
2017-Jun-20 04:00N 01°14' E 103°53'1 2.2
2017-Jun-20 03:31N 01°14' E 103°54'3 5.4
2017-Jun-20 03:00N 01°15' E 103°56'4 7.9
2017-Jun-20 02:30N 01°15' E 104°00'  

Dump ship's entire track history